Killarney, Canada
Current Conditions -  °F | °C
As of 6:21 PM on Thursday 27 Nov 2014 (Local Time) from CYZE Reporting Station
Light Snow Light Snow  
Wind Chill:   Ceiling: 3200
Heat Index: 21°   Visibility: 9mi
Dew Point: 14°   Wind: 15mph
Humidity: 74%   Direction: 320°NW
Pressure: 30.16"   Gusts: 21mph
Location:  45.98°N, 81.5°W
Report Text: CYZE 272321Z AUTO 32013G18KT 9SM -SN SCT027 OVC032 M06/M10 A3016 RMK ICG INTMT SLP224
Loading
Personal Weather Stations






























Interactive Weather Map New forecast layout! Learn more

10-Day Weather Forecast

Advertisements
Track Severe Weather on mobile